Time;durP1;ratioP1;P1;durP2;ratioP2;P2;SDS_P1;SDS_P2;PMS_P1;PMS_P2;Temp;Humidity;BMP_temperature;BMP_pressure;BME280_temperature;BME280_humidity;BME280_pressure;Samples;Min_cycle;Max_cycle;Signal;HPM_P1;HPM_P2
2023/12/02 00:00:31;;;;;;;0.80;0.80;;;-1.90;99.90;;;;;;5057649;28;20049;-84
2023/12/02 00:02:57;;;;;;;0.70;0.70;;;-1.90;99.90;;;;;;5077160;28;20037;-85
2023/12/02 00:05:23;;;;;;;0.47;0.47;;;-1.80;99.90;;;;;;5076747;28;20521;-85
2023/12/02 00:07:48;;;;;;;2.25;1.58;;;-1.80;99.90;;;;;;5076587;28;20070;-85
2023/12/02 00:10:14;;;;;;;0.23;0.23;;;-1.80;99.90;;;;;;5067028;28;20058;-84
2023/12/02 00:12:40;;;;;;;1.27;1.17;;;-1.80;99.90;;;;;;5072979;28;20090;-85
2023/12/02 00:15:07;;;;;;;0.07;0.07;;;-1.80;99.90;;;;;;5075664;28;20036;-84
2023/12/02 00:17:32;;;;;;;1.13;0.70;;;-1.80;99.90;;;;;;5075985;28;20048;-84
2023/12/02 00:19:58;;;;;;;2.77;2.33;;;-1.80;99.90;;;;;;5074938;28;20052;-84
2023/12/02 00:22:24;;;;;;;1.13;1.10;;;-1.70;99.90;;;;;;5074431;28;20048;-85
2023/12/02 00:24:50;;;;;;;1.43;1.33;;;-1.80;99.90;;;;;;5071011;28;20048;-85
2023/12/02 00:27:17;;;;;;;1.43;0.47;;;-1.80;99.90;;;;;;5078784;28;20033;-85
2023/12/02 00:29:43;;;;;;;1.10;0.63;;;-1.80;99.90;;;;;;5079934;28;20489;-85
2023/12/02 00:32:08;;;;;;;0.97;0.90;;;-1.80;99.90;;;;;;5073186;28;20043;-85
2023/12/02 00:34:34;;;;;;;1.85;1.65;;;-1.80;99.90;;;;;;5080192;28;20040;-84
2023/12/02 00:36:59;;;;;;;0.67;0.67;;;-1.80;99.90;;;;;;5079235;28;20079;-85
2023/12/02 00:39:25;;;;;;;0.60;0.60;;;-1.80;99.90;;;;;;5080116;28;20048;-84
2023/12/02 00:41:51;;;;;;;0.70;0.70;;;-1.70;99.90;;;;;;5079548;28;20394;-84
2023/12/02 00:44:16;;;;;;;0.50;0.50;;;-1.70;99.90;;;;;;5076987;28;20044;-85
2023/12/02 00:46:42;;;;;;;1.02;1.02;;;-1.70;99.90;;;;;;5077763;28;20449;-84
2023/12/02 00:49:07;;;;;;;1.20;0.90;;;-1.70;99.90;;;;;;5077618;28;20054;-84
2023/12/02 00:51:33;;;;;;;2.15;1.67;;;-1.70;99.90;;;;;;5078837;28;20037;-83
2023/12/02 00:53:58;;;;;;;3.70;0.85;;;-1.70;99.90;;;;;;5077023;28;20429;-85
2023/12/02 00:56:24;;;;;;;1.67;1.57;;;-1.60;99.90;;;;;;5078484;28;20068;-84
2023/12/02 00:58:50;;;;;;;2.30;1.75;;;-1.60;99.90;;;;;;5077098;28;20052;-85
2023/12/02 01:01:15;;;;;;;2.40;2.30;;;-1.60;99.90;;;;;;5077583;28;20498;-85
2023/12/02 01:03:41;;;;;;;0.90;0.90;;;-1.60;99.90;;;;;;5078134;28;20040;-84
2023/12/02 01:06:07;;;;;;;2.07;1.77;;;-1.60;99.90;;;;;;5068243;28;20095;-85
2023/12/02 01:08:33;;;;;;;0.73;0.73;;;-1.60;99.90;;;;;;5077071;28;20193;-84
2023/12/02 01:10:58;;;;;;;0.50;0.50;;;-1.60;99.90;;;;;;5076686;28;20029;-84
2023/12/02 01:13:24;;;;;;;4.03;2.20;;;-1.60;99.90;;;;;;5078334;28;20115;-85
2023/12/02 01:15:49;;;;;;;1.73;1.60;;;-1.60;99.90;;;;;;5066895;28;20418;-83
2023/12/02 01:18:15;;;;;;;3.77;0.80;;;-1.60;99.90;;;;;;5077899;28;20052;-85
2023/12/02 01:20:40;;;;;;;0.23;0.23;;;-1.60;99.90;;;;;;5078173;28;20062;-84
2023/12/02 01:23:06;;;;;;;2.05;1.95;;;-1.60;99.90;;;;;;5078039;28;20127;-84
2023/12/02 01:25:36;;;;;;;4.73;1.17;;;-1.60;99.90;;;;;;5079290;28;20063;-85
2023/12/02 01:28:02;;;;;;;1.63;1.50;;;-1.50;99.90;;;;;;5080903;28;20482;-84
2023/12/02 01:30:27;;;;;;;0.40;0.40;;;-1.50;99.90;;;;;;5080075;28;20050;-85
2023/12/02 01:32:53;;;;;;;0.50;0.50;;;-1.50;99.90;;;;;;5075191;28;20518;-85
2023/12/02 01:35:19;;;;;;;1.60;1.50;;;-1.50;99.90;;;;;;5075625;28;20044;-84
2023/12/02 01:37:44;;;;;;;2.70;2.33;;;-1.50;99.90;;;;;;5073232;28;20053;-85
2023/12/02 01:40:12;;;;;;;0.90;0.85;;;-1.50;99.90;;;;;;5073360;28;20032;-85
2023/12/02 01:42:38;;;;;;;1.95;1.02;;;-1.50;99.90;;;;;;5080634;28;20066;-85
2023/12/02 01:45:04;;;;;;;0.10;0.10;;;-1.40;99.90;;;;;;5078999;28;20052;-84
2023/12/02 01:47:30;;;;;;;0.20;0.20;;;-1.50;99.90;;;;;;5079074;28;20086;-85
2023/12/02 01:49:59;;;;;;;0.10;0.10;;;-1.50;99.90;;;;;;5078584;28;20040;-86
2023/12/02 01:52:24;;;;;;;0.43;0.43;;;-1.50;99.90;;;;;;5078482;28;20051;-84
2023/12/02 01:54:50;;;;;;;3.60;1.53;;;-1.50;99.90;;;;;;5079048;28;20041;-85
2023/12/02 01:57:16;;;;;;;0.40;0.40;;;-1.50;99.90;;;;;;5077103;28;20079;-84
2023/12/02 01:59:49;;;;;;;0.00;0.00;;;-1.40;99.90;;;;;;5079496;28;20062;-85
2023/12/02 02:02:15;;;;;;;1.43;1.33;;;-1.50;99.90;;;;;;5077953;28;20044;-84
2023/12/02 02:04:40;;;;;;;0.50;0.50;;;-1.40;99.90;;;;;;5078847;28;20502;-85
2023/12/02 02:07:06;;;;;;;0.35;0.35;;;-1.40;99.90;;;;;;5079490;28;20045;-84
2023/12/02 02:09:34;;;;;;;0.30;0.30;;;-1.40;99.90;;;;;;5080096;28;20043;-85
2023/12/02 02:12:00;;;;;;;0.70;0.70;;;-1.40;99.90;;;;;;5078546;28;20040;-85
2023/12/02 02:14:26;;;;;;;1.80;1.37;;;-1.40;99.90;;;;;;5079541;28;20074;-85
2023/12/02 02:16:51;;;;;;;4.95;1.25;;;-1.40;99.90;;;;;;5079701;28;20041;-84
2023/12/02 02:19:18;;;;;;;0.70;0.70;;;-1.40;99.90;;;;;;5078934;28;20041;-84
2023/12/02 02:21:43;;;;;;;2.63;1.95;;;-1.40;99.90;;;;;;5065557;28;20044;-84
2023/12/02 02:24:09;;;;;;;1.25;0.93;;;-1.40;99.90;;;;;;5079450;28;20044;-85
2023/12/02 02:26:35;;;;;;;0.28;0.28;;;-1.40;99.90;;;;;;5077787;28;20486;-84
2023/12/02 02:29:00;;;;;;;0.00;0.00;;;-1.40;99.90;;;;;;5080129;28;20142;-85
2023/12/02 02:31:26;;;;;;;0.85;0.80;;;-1.40;99.90;;;;;;5080879;28;20068;-82
2023/12/02 02:33:51;;;;;;;4.67;1.67;;;-1.40;99.90;;;;;;5081573;28;20044;-84
2023/12/02 02:36:18;;;;;;;1.20;0.47;;;-1.40;99.90;;;;;;5080321;28;21074;-85
2023/12/02 02:38:43;;;;;;;0.25;0.25;;;-1.40;99.90;;;;;;5081141;28;20044;-85
2023/12/02 02:41:09;;;;;;;0.60;0.60;;;-1.50;99.90;;;;;;5080180;28;20053;-85
2023/12/02 02:43:35;;;;;;;0.38;0.38;;;-1.50;99.90;;;;;;5080045;28;20041;-84
2023/12/02 02:46:00;;;;;;;0.30;0.30;;;-1.50;99.90;;;;;;5080102;28;20044;-84
2023/12/02 02:48:26;;;;;;;0.90;0.90;;;-1.50;99.90;;;;;;5074279;28;20053;-84
2023/12/02 02:50:52;;;;;;;0.20;0.20;;;-1.50;99.90;;;;;;5079268;28;20047;-85
2023/12/02 02:53:17;;;;;;;2.87;1.47;;;-1.50;99.90;;;;;;5081961;28;20076;-84
2023/12/02 02:55:43;;;;;;;0.10;0.10;;;-1.50;99.90;;;;;;5081468;28;20041;-85
2023/12/02 02:58:09;;;;;;;1.05;1.05;;;-1.40;99.90;;;;;;5080203;28;20482;-84
2023/12/02 03:00:34;;;;;;;1.73;1.63;;;-1.40;99.90;;;;;;5081685;28;20051;-85
2023/12/02 03:03:00;;;;;;;1.55;1.30;;;-1.40;99.90;;;;;;5081236;28;20111;-83
2023/12/02 03:05:25;;;;;;;1.80;1.70;;;-1.40;99.90;;;;;;5081360;28;20132;-84
2023/12/02 03:07:51;;;;;;;0.10;0.10;;;-1.30;99.90;;;;;;5081578;28;20043;-85
2023/12/02 03:10:16;;;;;;;0.22;0.22;;;-1.40;99.90;;;;;;5082301;28;20040;-85
2023/12/02 03:12:42;;;;;;;0.97;0.97;;;-1.40;99.90;;;;;;5081834;28;20070;-84
2023/12/02 03:15:08;;;;;;;0.30;0.30;;;-1.40;99.90;;;;;;5078358;28;20443;-84
2023/12/02 03:17:33;;;;;;;1.65;0.57;;;-1.40;99.90;;;;;;5082356;28;20048;-84
2023/12/02 03:19:59;;;;;;;0.50;0.50;;;-1.40;99.90;;;;;;5081717;28;20044;-85
2023/12/02 03:22:25;;;;;;;0.20;0.20;;;-1.40;99.90;;;;;;5079666;28;20514;-85
2023/12/02 03:24:51;;;;;;;0.73;0.33;;;-1.50;99.90;;;;;;5080638;28;20078;-85
2023/12/02 03:27:17;;;;;;;1.13;1.05;;;-1.50;99.90;;;;;;5080437;28;20076;-84
2023/12/02 03:29:42;;;;;;;1.45;0.73;;;-1.60;99.90;;;;;;5063483;28;20459;-85
2023/12/02 03:32:08;;;;;;;0.20;0.20;;;-1.60;99.90;;;;;;5084386;28;20072;-85
2023/12/02 03:34:33;;;;;;;2.70;1.03;;;-1.70;99.90;;;;;;5089428;28;20393;-84
2023/12/02 03:36:59;;;;;;;0.07;0.07;;;-1.70;99.90;;;;;;5080521;28;20037;-85
2023/12/02 03:39:24;;;;;;;1.43;0.93;;;-1.70;99.90;;;;;;5080622;28;20036;-84
2023/12/02 03:41:50;;;;;;;0.50;0.50;;;-1.80;99.90;;;;;;5083889;28;20037;-85
2023/12/02 03:44:16;;;;;;;1.90;0.97;;;-1.80;99.90;;;;;;5078929;28;20103;-84
2023/12/02 03:46:43;;;;;;;3.60;2.57;;;-1.80;99.90;;;;;;5087094;28;20482;-85
2023/12/02 03:49:08;;;;;;;3.07;0.93;;;-1.80;99.90;;;;;;5082733;28;20102;-84
2023/12/02 03:51:34;;;;;;;1.83;1.43;;;-1.80;99.90;;;;;;5081260;28;20044;-84
2023/12/02 03:53:59;;;;;;;2.20;1.97;;;-1.80;99.90;;;;;;5080089;28;20036;-83
2023/12/02 03:56:25;;;;;;;2.10;1.90;;;-1.80;99.90;;;;;;5081130;28;20063;-84
2023/12/02 03:58:51;;;;;;;1.70;1.60;;;-1.70;99.90;;;;;;5081276;28;20055;-84
2023/12/02 04:01:21;;;;;;;1.23;1.15;;;-1.70;99.90;;;;;;5069127;28;20094;-84
2023/12/02 04:03:47;;;;;;;1.25;1.15;;;-1.60;99.90;;;;;;5086306;28;20040;-85
2023/12/02 04:06:13;;;;;;;1.33;1.23;;;-1.60;99.90;;;;;;5085220;28;20063;-84
2023/12/02 04:08:39;;;;;;;0.90;0.90;;;-1.20;99.90;;;;;;5085746;28;20040;-84
2023/12/02 04:11:06;;;;;;;2.83;2.33;;;-1.60;99.90;;;;;;5085103;28;20052;-83
2023/12/02 04:13:31;;;;;;;2.35;1.67;;;-1.50;99.90;;;;;;5086607;28;20036;-84
2023/12/02 04:15:57;;;;;;;0.63;0.63;;;-1.50;99.90;;;;;;5085102;28;20098;-85
2023/12/02 04:18:23;;;;;;;0.43;0.43;;;-1.40;99.90;;;;;;5085891;28;20101;-84
2023/12/02 04:20:49;;;;;;;0.43;0.43;;;-1.40;99.90;;;;;;5085675;28;20044;-84
2023/12/02 04:23:15;;;;;;;1.97;1.60;;;-1.50;99.90;;;;;;5085584;28;20521;-85
2023/12/02 04:25:41;;;;;;;0.00;0.00;;;-1.50;99.90;;;;;;5078384;28;20036;-85
2023/12/02 04:28:07;;;;;;;0.20;0.20;;;-1.50;99.90;;;;;;5084993;28;20139;-84
2023/12/02 04:30:34;;;;;;;11.13;2.10;;;-1.40;99.90;;;;;;5075239;28;20078;-84
2023/12/02 04:32:59;;;;;;;1.27;1.17;;;-1.40;99.90;;;;;;5084900;28;20116;-85
2023/12/02 04:35:25;;;;;;;1.83;1.10;;;-1.40;99.90;;;;;;5082672;28;20071;-85
2023/12/02 04:37:51;;;;;;;0.68;0.60;;;-1.40;99.90;;;;;;5082324;28;20075;-85
2023/12/02 04:40:17;;;;;;;0.73;0.73;;;-1.50;99.90;;;;;;5081356;28;20045;-85
2023/12/02 04:42:43;;;;;;;2.30;2.10;;;-1.50;99.90;;;;;;5084969;28;20119;-85
2023/12/02 04:45:09;;;;;;;0.40;0.40;;;-1.50;99.90;;;;;;5083846;28;20040;-84
2023/12/02 04:47:36;;;;;;;2.33;1.70;;;-1.60;99.90;;;;;;5066836;28;20124;-83
2023/12/02 04:50:03;;;;;;;3.17;2.03;;;-1.60;99.90;;;;;;5074142;28;20071;-84
2023/12/02 04:52:29;;;;;;;0.90;0.87;;;-1.60;99.90;;;;;;5072820;28;20077;-84
2023/12/02 04:54:55;;;;;;;0.97;0.93;;;-1.60;99.90;;;;;;5072283;28;20466;-82
2023/12/02 04:57:20;;;;;;;1.70;1.60;;;-1.70;99.90;;;;;;5080009;28;20053;-84
2023/12/02 04:59:47;;;;;;;2.60;2.40;;;-1.60;99.90;;;;;;5085340;28;20424;-84
2023/12/02 05:02:12;;;;;;;1.77;1.58;;;-1.70;99.90;;;;;;5067453;28;20049;-83
2023/12/02 05:04:38;;;;;;;2.10;1.60;;;-1.70;99.90;;;;;;5085176;28;20490;-83
2023/12/02 05:07:04;;;;;;;0.10;0.10;;;-1.70;99.90;;;;;;5085494;28;20047;-83
2023/12/02 05:09:29;;;;;;;0.07;0.07;;;-1.70;99.90;;;;;;5078324;28;20063;-84
2023/12/02 05:11:55;;;;;;;1.00;1.00;;;-1.80;99.90;;;;;;5063244;28;20052;-83
2023/12/02 05:14:21;;;;;;;1.60;0.63;;;-1.80;99.90;;;;;;5074920;28;20084;-83
2023/12/02 05:16:47;;;;;;;1.67;0.93;;;-1.80;99.90;;;;;;5085146;28;20036;-83
2023/12/02 05:19:12;;;;;;;2.20;1.50;;;-1.80;99.90;;;;;;5084830;28;20130;-83
2023/12/02 05:21:38;;;;;;;1.33;1.03;;;-1.80;99.90;;;;;;5083330;28;20044;-83
2023/12/02 05:24:04;;;;;;;3.50;2.10;;;-1.80;99.30;;;;;;5078111;28;20120;-84
2023/12/02 05:26:30;;;;;;;1.80;1.70;;;-1.90;89.00;;;;;;5068230;28;20067;-83
2023/12/02 05:28:55;;;;;;;0.70;0.70;;;-1.90;84.10;;;;;;5083856;28;20574;-82
2023/12/02 05:31:21;;;;;;;1.40;0.83;;;-1.90;78.20;;;;;;5082781;28;20036;-83
2023/12/02 05:33:47;;;;;;;0.25;0.25;;;-1.90;32.60;;;;;;5081344;28;20041;-85
2023/12/02 05:36:13;;;;;;;0.37;0.37;;;-1.90;13.20;;;;;;5080913;28;20064;-85
2023/12/02 05:38:38;;;;;;;0.40;0.40;;;-1.90;1.00;;;;;;5084632;28;20036;-83
2023/12/02 05:41:05;;;;;;;1.53;1.43;;;-2.00;1.00;;;;;;5083681;28;20063;-85
2023/12/02 05:43:31;;;;;;;0.63;0.63;;;-1.90;32.90;;;;;;5083709;28;20041;-85
2023/12/02 05:45:56;;;;;;;0.30;0.30;;;-1.90;11.80;;;;;;5077680;28;20071;-84
2023/12/02 05:48:22;;;;;;;0.20;0.20;;;-1.90;1.00;;;;;;5083935;28;20598;-83
2023/12/02 05:50:48;;;;;;;0.50;0.50;;;-2.00;1.00;;;;;;5083971;28;20066;-83
2023/12/02 05:53:13;;;;;;;3.27;2.53;;;-2.00;1.00;;;;;;5084887;28;20032;-86
2023/12/02 05:55:39;;;;;;;0.40;0.40;;;-2.00;1.00;;;;;;5084419;28;20042;-85
2023/12/02 05:58:04;;;;;;;2.43;2.23;;;-2.10;1.00;;;;;;5084119;28;20049;-84
2023/12/02 06:00:30;;;;;;;0.10;0.10;;;-2.10;1.00;;;;;;5066611;28;20049;-85
2023/12/02 06:02:56;;;;;;;0.32;0.32;;;-2.10;1.00;;;;;;5084323;28;20104;-83
2023/12/02 06:05:21;;;;;;;0.43;0.43;;;-2.10;1.00;;;;;;5084312;28;20037;-83
2023/12/02 06:07:47;;;;;;;1.60;0.83;;;-2.10;1.00;;;;;;5080294;28;20042;-83
2023/12/02 06:10:12;;;;;;;1.93;1.03;;;-2.20;1.00;;;;;;5082649;28;20102;-84
2023/12/02 06:12:38;;;;;;;0.00;0.00;;;-2.10;1.00;;;;;;5084598;28;20036;-84
2023/12/02 06:15:04;;;;;;;3.53;1.90;;;-2.10;1.00;;;;;;5083488;28;20048;-83
2023/12/02 06:17:31;;;;;;;0.53;0.53;;;-2.10;1.00;;;;;;5084260;28;20044;-83
2023/12/02 06:19:57;;;;;;;2.23;1.07;;;-2.10;1.00;;;;;;5083692;28;20048;-84
2023/12/02 06:22:22;;;;;;;0.10;0.10;;;-2.20;1.00;;;;;;5083659;28;20037;-83
2023/12/02 06:24:48;;;;;;;0.83;0.77;;;-2.20;1.00;;;;;;5076704;28;20068;-84
2023/12/02 06:27:13;;;;;;;3.77;1.87;;;-2.20;1.00;;;;;;5083173;28;20042;-83
2023/12/02 06:29:39;;;;;;;2.33;1.77;;;-2.20;1.00;;;;;;5083805;28;20071;-83
2023/12/02 06:32:05;;;;;;;0.43;0.43;;;-2.20;1.00;;;;;;5084459;28;20028;-84
2023/12/02 06:34:30;;;;;;;2.23;1.53;;;-2.20;1.00;;;;;;5082492;28;20108;-83
2023/12/02 06:36:56;;;;;;;2.47;2.00;;;-2.20;1.00;;;;;;5083061;28;20040;-84
2023/12/02 06:39:21;;;;;;;0.87;0.87;;;-2.20;1.00;;;;;;5083510;28;20037;-83
2023/12/02 06:41:47;;;;;;;0.20;0.20;;;-2.10;1.00;;;;;;5082607;28;20036;-83
2023/12/02 06:44:13;;;;;;;0.10;0.10;;;-2.10;1.00;;;;;;5082446;28;20449;-83
2023/12/02 06:46:38;;;;;;;1.50;1.40;;;-2.10;1.00;;;;;;5082692;28;20068;-83
2023/12/02 06:49:04;;;;;;;0.97;0.97;;;-2.10;1.00;;;;;;5083527;28;20111;-85
2023/12/02 06:51:29;;;;;;;0.60;0.60;;;-2.10;1.00;;;;;;5083826;28;20467;-85
2023/12/02 06:53:58;;;;;;;0.50;0.50;;;-2.10;1.00;;;;;;5082027;28;20041;-85
2023/12/02 06:56:25;;;;;;;0.40;0.40;;;-2.10;1.00;;;;;;5064854;28;20052;-85
2023/12/02 06:58:52;;;;;;;4.03;1.33;;;-2.10;1.00;;;;;;5081913;28;20059;-85
2023/12/02 07:01:31;;;;;;;2.47;2.30;;;-2.10;1.00;;;;;;5082891;28;20064;-85
2023/12/02 07:04:00;;;;;;;3.63;0.67;;;-2.10;1.00;;;;;;5082049;28;20048;-85
2023/12/02 07:06:26;;;;;;;0.77;0.77;;;-2.10;1.00;;;;;;5073717;28;20048;-83
2023/12/02 07:08:54;;;;;;;0.63;0.63;;;-2.10;1.00;;;;;;5078823;28;20036;-86
2023/12/02 07:11:20;;;;;;;0.37;0.37;;;-2.10;1.00;;;;;;5079085;28;20040;-85
2023/12/02 07:13:46;;;;;;;2.20;1.07;;;-2.10;1.00;;;;;;5079745;28;20051;-85
2023/12/02 07:16:12;;;;;;;1.70;1.60;;;-2.10;1.00;;;;;;5062479;28;20033;-85
2023/12/02 07:18:39;;;;;;;1.60;1.20;;;-2.10;1.00;;;;;;5080663;28;20044;-86
2023/12/02 07:21:05;;;;;;;1.23;0.93;;;-2.10;1.00;;;;;;5081144;28;20040;-85
2023/12/02 07:23:31;;;;;;;0.65;0.65;;;-2.10;1.00;;;;;;5075706;28;20094;-85
2023/12/02 07:25:57;;;;;;;0.20;0.20;;;-2.10;1.00;;;;;;5074829;28;20041;-83
2023/12/02 07:28:23;;;;;;;0.83;0.83;;;-2.00;1.00;;;;;;5075597;28;20056;-84
2023/12/02 07:30:49;;;;;;;0.00;0.00;;;-2.10;1.00;;;;;;5076397;28;20519;-84
2023/12/02 07:33:18;;;;;;;0.60;0.60;;;-2.10;1.00;;;;;;5074640;28;20074;-83
2023/12/02 07:35:43;;;;;;;0.43;0.43;;;-2.10;1.00;;;;;;5076066;28;20439;-84
2023/12/02 07:38:09;;;;;;;1.23;1.17;;;-2.00;1.90;;;;;;5076948;28;20040;-84
2023/12/02 07:40:35;;;;;;;0.37;0.37;;;-2.00;7.60;;;;;;5076116;28;20048;-83
2023/12/02 07:43:01;;;;;;;1.23;1.13;;;-2.00;10.10;;;;;;5076241;28;20044;-84
2023/12/02 07:45:30;;;;;;;2.97;1.37;;;-1.90;32.70;;;;;;5063490;28;20117;-84
2023/12/02 07:47:56;;;;;;;0.30;0.30;;;-1.90;56.10;;;;;;5074559;28;20040;-83
2023/12/02 07:50:22;;;;;;;0.13;0.13;;;-1.90;54.60;;;;;;5071478;28;20387;-83
2023/12/02 07:52:47;;;;;;;0.33;0.33;;;-1.80;63.20;;;;;;5077214;28;20036;-83
2023/12/02 07:55:13;;;;;;;0.10;0.10;;;-1.80;50.30;;;;;;5069239;28;20052;-84
2023/12/02 07:57:39;;;;;;;0.50;0.50;;;-1.80;37.90;;;;;;5075689;28;20059;-83
2023/12/02 08:00:05;;;;;;;2.88;2.65;;;-1.80;45.00;;;;;;5074777;28;20044;-83
2023/12/02 08:02:31;;;;;;;2.20;2.00;;;-1.80;33.50;;;;;;5076392;28;20044;-84
2023/12/02 08:04:57;;;;;;;0.93;0.93;;;-1.80;45.60;;;;;;5075309;28;20036;-84
2023/12/02 08:07:23;;;;;;;2.00;0.87;;;-1.80;30.00;;;;;;5074618;28;20048;-84
2023/12/02 08:09:48;;;;;;;1.43;1.33;;;-1.80;26.10;;;;;;5075270;28;20040;-84
2023/12/02 08:12:14;;;;;;;0.40;0.40;;;-1.80;59.40;;;;;;5075172;28;20032;-84
2023/12/02 08:14:39;;;;;;;12.80;1.77;;;-1.80;64.50;;;;;;5074607;28;20040;-83
2023/12/02 08:17:05;;;;;;;5.00;1.30;;;-1.80;62.30;;;;;;5076070;28;20501;-84
2023/12/02 08:19:31;;;;;;;0.37;0.37;;;-1.70;99.90;;;;;;5074480;28;20113;-83
2023/12/02 08:21:56;;;;;;;6.87;2.83;;;-1.70;99.90;;;;;;5073950;28;20094;-84
2023/12/02 08:24:22;;;;;;;2.72;2.08;;;-1.70;99.90;;;;;;5075297;28;20048;-84
2023/12/02 08:26:47;;;;;;;7.30;1.83;;;-1.70;99.90;;;;;;5073561;28;20119;-84
2023/12/02 08:29:13;;;;;;;1.30;1.20;;;-1.60;99.90;;;;;;5071535;28;20079;-83
2023/12/02 08:31:39;;;;;;;1.43;1.33;;;-1.60;99.90;;;;;;5074336;28;20047;-83
2023/12/02 08:34:05;;;;;;;1.43;1.33;;;-1.60;99.90;;;;;;5074047;28;20036;-83
2023/12/02 08:36:30;;;;;;;3.13;2.80;;;-1.50;99.90;;;;;;5073511;28;20066;-84
2023/12/02 08:38:56;;;;;;;0.20;0.20;;;-1.50;99.90;;;;;;5074978;28;20041;-84
2023/12/02 08:41:21;;;;;;;2.07;1.93;;;-1.50;99.90;;;;;;5075378;28;20078;-83
2023/12/02 08:43:47;;;;;;;2.63;2.43;;;-1.40;99.90;;;;;;5066454;28;20120;-83
2023/12/02 08:46:19;;;;;;;3.13;1.27;;;-1.30;99.90;;;;;;5073489;28;20047;-83
2023/12/02 08:48:45;;;;;;;2.87;1.50;;;-1.30;99.90;;;;;;5077268;28;20055;-83
2023/12/02 08:51:11;;;;;;;0.32;0.32;;;-1.30;99.90;;;;;;5077286;28;20376;-84
2023/12/02 08:53:36;;;;;;;1.97;1.87;;;-1.30;99.90;;;;;;5077534;28;20055;-84
2023/12/02 08:56:02;;;;;;;1.33;1.23;;;-1.30;99.90;;;;;;5075961;28;20047;-84
2023/12/02 08:58:28;;;;;;;0.50;0.50;;;-1.20;99.90;;;;;;5061629;28;20052;-83
2023/12/02 09:00:53;;;;;;;0.40;0.40;;;-1.20;99.90;;;;;;5077779;28;20048;-83
2023/12/02 09:03:19;;;;;;;1.70;1.50;;;-1.10;99.90;;;;;;5075967;28;20044;-85
2023/12/02 09:05:45;;;;;;;1.30;1.20;;;-1.10;99.90;;;;;;5071877;28;20053;-84
2023/12/02 09:08:11;;;;;;;2.30;1.63;;;-1.00;99.90;;;;;;5071973;28;20041;-83
2023/12/02 09:10:37;;;;;;;0.83;0.83;;;-1.00;99.90;;;;;;5072514;28;20470;-84
2023/12/02 09:13:11;;;;;;;0.57;0.57;;;-0.90;99.90;;;;;;5066952;28;20072;-84
2023/12/02 09:15:40;;;;;;;1.63;1.53;;;-0.90;99.90;;;;;;5075875;28;20064;-84
2023/12/02 09:18:07;;;;;;;3.50;1.57;;;-0.90;99.90;;;;;;5075935;28;20079;-84
2023/12/02 09:20:35;;;;;;;1.40;1.20;;;-0.80;99.90;;;;;;5072743;28;20460;-84
2023/12/02 09:23:01;;;;;;;2.60;1.43;;;-0.80;99.90;;;;;;5074753;28;20052;-84
2023/12/02 09:25:31;;;;;;;1.80;1.53;;;-0.70;99.90;;;;;;5075900;28;20040;-84
2023/12/02 09:28:06;;;;;;;0.28;0.28;;;-0.70;99.90;;;;;;5069481;28;20201;-84
2023/12/02 09:30:36;;;;;;;2.73;2.53;;;-0.70;99.90;;;;;;5064589;28;20068;-84
2023/12/02 09:33:05;;;;;;;1.57;1.47;;;-0.70;99.90;;;;;;5074518;28;20053;-84
2023/12/02 09:35:32;;;;;;;1.57;1.47;;;-0.60;99.90;;;;;;5073962;28;20511;-84
2023/12/02 09:38:00;;;;;;;0.17;0.17;;;-0.60;99.90;;;;;;5066556;28;20041;-84
2023/12/02 09:40:35;;;;;;;0.40;0.40;;;-0.60;99.90;;;;;;5071256;28;20375;-84
2023/12/02 09:43:07;;;;;;;9.48;3.10;;;-0.60;99.90;;;;;;5074720;28;20044;-83
2023/12/02 09:45:39;;;;;;;2.53;1.40;;;-0.50;99.90;;;;;;5073982;28;20071;-83
2023/12/02 09:48:23;;;;;;;0.63;0.63;;;-0.40;99.90;;;;;;5079320;28;20450;-83
2023/12/02 09:51:22;;;;;;;1.83;1.73;;;-0.30;99.90;;;;;;5077797;28;20055;-83
2023/12/02 09:54:00;;;;;;;1.27;1.17;;;0.00;99.90;;;;;;5074947;28;20486;-84
2023/12/02 09:56:34;;;;;;;2.83;1.85;;;0.20;99.90;;;;;;5065481;28;20136;-84
2023/12/02 09:59:17;;;;;;;3.07;2.77;;;0.30;99.90;;;;;;5052189;28;20048;-84
2023/12/02 10:01:52;;;;;;;2.40;2.20;;;0.50;99.90;;;;;;5070042;28;20598;-84
2023/12/02 10:04:45;;;;;;;3.40;1.90;;;0.50;66.60;;;;;;5066704;28;20087;-84
2023/12/02 10:07:38;;;;;;;0.63;0.63;;;0.50;31.60;;;;;;5068141;28;20107;-84
2023/12/02 10:10:09;;;;;;;0.47;0.47;;;0.60;6.30;;;;;;5070049;28;20115;-84
2023/12/02 10:12:57;;;;;;;1.88;0.75;;;0.60;1.00;;;;;;5068139;28;20494;-85
2023/12/02 10:15:28;;;;;;;2.33;1.50;;;0.60;1.00;;;;;;5067141;28;20044;-84
2023/12/02 10:18:10;;;;;;;2.97;1.37;;;0.70;1.00;;;;;;5069851;28;20387;-84
2023/12/02 10:20:39;;;;;;;1.40;1.30;;;0.70;1.00;;;;;;5065964;28;20104;-84
2023/12/02 10:23:28;;;;;;;2.47;2.27;;;0.70;1.00;;;;;;5071756;28;20116;-85
2023/12/02 10:25:57;;;;;;;0.87;0.87;;;0.70;99.90;;;;;;5064299;28;20435;-84
2023/12/02 10:28:35;;;;;;;1.40;1.30;;;0.70;99.90;;;;;;5069722;28;20078;-84
2023/12/02 10:31:04;;;;;;;0.93;0.93;;;0.80;99.90;;;;;;5066619;28;20044;-84
2023/12/02 10:33:45;;;;;;;2.88;2.60;;;0.80;99.90;;;;;;5065717;28;20076;-85
2023/12/02 10:36:12;;;;;;;1.33;1.23;;;0.90;99.90;;;;;;5065569;28;20456;-85
2023/12/02 10:39:09;;;;;;;1.30;1.20;;;0.90;99.90;;;;;;5072166;28;20055;-85
2023/12/02 10:41:54;;;;;;;;;;;1.00;99.90;;;;;;5072981;28;20060;-85
2023/12/02 10:44:25;;;;;;;0.20;0.20;;;1.00;99.90;;;;;;5070568;28;19970;-85
2023/12/02 10:46:53;;;;;;;2.00;0.87;;;1.00;99.90;;;;;;5072658;28;20445;-85
2023/12/02 10:49:20;;;;;;;2.28;2.13;;;1.10;99.90;;;;;;5070964;28;20046;-85
2023/12/02 10:51:49;;;;;;;1.73;1.63;;;1.10;99.90;;;;;;5071116;28;20062;-85
2023/12/02 10:54:17;;;;;;;2.97;1.20;;;1.10;99.90;;;;;;5071676;28;20480;-85
2023/12/02 10:56:46;;;;;;;0.60;0.60;;;1.20;99.90;;;;;;5060904;28;20110;-84
2023/12/02 10:59:13;;;;;;;2.95;2.40;;;1.20;99.90;;;;;;5068359;28;20124;-85
2023/12/02 11:01:59;;;;;;;1.10;0.75;;;1.20;99.90;;;;;;5070398;28;20072;-84
2023/12/02 11:04:34;;;;;;;1.40;1.30;;;1.30;99.90;;;;;;5070745;28;20102;-85
2023/12/02 11:07:04;;;;;;;0.75;0.75;;;1.40;99.90;;;;;;5064898;28;20084;-85
2023/12/02 11:09:38;;;;;;;1.57;1.47;;;1.40;99.90;;;;;;5073096;28;20045;-85
2023/12/02 11:12:45;;;;;;;0.82;0.82;;;1.50;99.90;;;;;;5072541;28;20486;-84
2023/12/02 11:15:13;;;;;;;1.05;0.98;;;1.60;99.90;;;;;;5068280;28;20076;-84
2023/12/02 11:17:57;;;;;;;0.00;0.00;;;1.70;1.00;;;;;;5064123;28;20045;-84
2023/12/02 11:20:33;;;;;;;1.37;1.27;;;1.70;1.00;;;;;;5063795;28;20466;-84
2023/12/02 11:23:11;;;;;;;5.80;3.23;;;1.80;1.00;;;;;;5070900;28;20072;-84
2023/12/02 11:25:55;;;;;;;0.20;0.20;;;1.80;9.50;;;;;;5070563;28;20080;-84
2023/12/02 11:28:23;;;;;;;0.67;0.60;;;1.80;99.90;;;;;;5070343;28;20045;-84
2023/12/02 11:31:27;;;;;;;1.30;1.25;;;1.80;99.90;;;;;;5070807;28;20044;-84
2023/12/02 11:34:32;;;;;;;12.17;2.03;;;1.80;99.90;;;;;;5062753;28;20105;-84
2023/12/02 11:37:13;;;;;;;1.65;1.20;;;1.90;99.90;;;;;;5057913;28;20399;-84
2023/12/02 11:39:47;;;;;;;1.23;1.13;;;2.00;99.90;;;;;;5062119;28;20040;-84
2023/12/02 11:42:17;;;;;;;1.70;1.60;;;2.00;99.90;;;;;;5069274;28;20056;-85
2023/12/02 11:45:19;;;;;;;0.95;0.95;;;2.10;99.90;;;;;;5060858;28;20044;-84
2023/12/02 11:48:18;;;;;;;0.73;0.73;;;2.10;99.90;;;;;;5049985;28;20041;-84
2023/12/02 11:51:07;;;;;;;0.38;0.35;;;2.20;99.90;;;;;;5068151;28;20150;-84
2023/12/02 11:54:09;;;;;;;1.85;1.30;;;2.30;99.90;;;;;;5067294;28;20052;-84
2023/12/02 11:56:35;;;;;;;0.70;0.70;;;2.50;99.90;;;;;;5060019;28;20060;-84
2023/12/02 11:59:16;;;;;;;2.50;2.30;;;2.50;99.90;;;;;;5070444;28;20404;-84
2023/12/02 12:01:54;;;;;;;12.20;3.50;;;2.60;99.90;;;;;;5070787;28;20516;-84
2023/12/02 12:04:57;;;;;;;0.38;0.38;;;2.60;99.90;;;;;;5069525;28;20059;-84
2023/12/02 12:07:54;;;;;;;0.00;0.00;;;2.60;99.90;;;;;;5063174;28;20099;-84
2023/12/02 12:10:33;;;;;;;2.97;1.23;;;2.60;23.30;;;;;;5063614;28;20056;-84
2023/12/02 12:13:00;;;;;;;0.10;0.10;;;2.60;44.80;;;;;;5069220;28;20053;-84
2023/12/02 12:15:26;;;;;;;1.30;1.20;;;2.70;58.20;;;;;;5069907;28;20048;-84
2023/12/02 12:17:51;;;;;;;1.05;0.95;;;2.70;58.70;;;;;;5056019;28;20495;-84
2023/12/02 12:20:19;;;;;;;0.77;0.77;;;2.70;69.80;;;;;;5072957;28;20068;-84
2023/12/02 12:22:45;;;;;;;1.00;0.98;;;2.70;74.20;;;;;;5076648;28;20470;-83
2023/12/02 12:25:11;;;;;;;0.52;0.43;;;2.60;1.00;;;;;;5072522;28;20047;-84
2023/12/02 12:27:37;;;;;;;0.00;0.00;;;2.60;1.00;;;;;;5069532;28;20043;-83
2023/12/02 12:30:03;;;;;;;3.50;2.40;;;2.50;1.00;;;;;;5069844;28;20053;-83
2023/12/02 12:32:29;;;;;;;1.93;1.60;;;2.50;1.00;;;;;;5072457;28;20044;-83
2023/12/02 12:34:54;;;;;;;0.22;0.22;;;2.40;7.00;;;;;;5069003;28;20044;-83
2023/12/02 12:37:20;;;;;;;1.38;1.27;;;2.30;1.00;;;;;;5076667;28;20037;-83
2023/12/02 12:39:47;;;;;;;1.50;0.73;;;2.10;1.00;;;;;;5077566;28;20072;-83
2023/12/02 12:42:12;;;;;;;0.77;0.73;;;2.10;23.00;;;;;;5077801;28;20044;-83
2023/12/02 12:44:39;;;;;;;1.45;1.10;;;2.00;92.60;;;;;;5071756;28;20036;-84
2023/12/02 12:47:09;;;;;;;1.33;1.27;;;1.90;99.90;;;;;;5074274;28;20082;-83
2023/12/02 12:49:39;;;;;;;0.20;0.20;;;1.80;99.90;;;;;;5077719;28;20574;-83
2023/12/02 12:52:07;;;;;;;0.70;0.70;;;1.80;99.90;;;;;;5078318;28;20123;-83
2023/12/02 12:54:38;;;;;;;0.67;0.67;;;1.90;99.90;;;;;;5074892;28;20052;-83
2023/12/02 12:57:10;;;;;;;1.88;1.77;;;1.90;99.90;;;;;;5077370;28;20068;-83